createdAt,value
2019-04-20T00:02:15.930Z,10.15
2019-04-20T00:04:41.355Z,9.75
2019-04-20T00:07:12.252Z,9.65
2019-04-20T00:09:45.423Z,10.13
2019-04-20T00:12:18.946Z,10.10
2019-04-20T00:14:42.378Z,9.73
2019-04-20T00:17:11.671Z,9.68
2019-04-20T00:19:45.380Z,10.15
2019-04-20T00:22:33.123Z,9.80
2019-04-20T00:25:17.619Z,9.88
2019-04-20T00:28:19.466Z,9.73
2019-04-20T00:30:55.736Z,9.98
2019-04-20T00:33:14.816Z,10.03
2019-04-20T00:35:35.815Z,9.93
2019-04-20T00:38:05.651Z,10.30
2019-04-20T00:40:35.618Z,10.32
2019-04-20T00:43:04.758Z,10.13
2019-04-20T00:45:36.227Z,11.08
2019-04-20T00:48:11.995Z,10.00
2019-04-20T00:50:52.561Z,10.25
2019-04-20T00:53:14.782Z,10.30
2019-04-20T00:55:36.013Z,10.28
2019-04-20T00:58:11.731Z,10.03
2019-04-20T01:01:00.181Z,10.30
2019-04-20T01:03:20.731Z,10.20
2019-04-20T01:06:08.292Z,10.35
2019-04-20T01:08:25.488Z,10.25
2019-04-20T01:10:57.378Z,9.78
2019-04-20T01:13:26.690Z,9.65
2019-04-20T01:16:03.288Z,10.30
2019-04-20T01:18:24.870Z,10.58
2019-04-20T01:20:53.680Z,10.13
2019-04-20T01:23:24.363Z,9.83
2019-04-20T01:26:01.219Z,10.32
2019-04-20T01:28:39.947Z,10.05
2019-04-20T01:31:06.434Z,9.63
2019-04-20T01:33:39.483Z,10.68
2019-04-20T01:36:09.040Z,10.18
2019-04-20T01:38:40.046Z,9.78
2019-04-20T01:40:55.030Z,10.48
2019-04-20T01:43:29.056Z,9.40
2019-04-20T01:46:05.086Z,10.18
2019-04-20T01:48:33.653Z,10.80
2019-04-20T01:51:07.172Z,10.58
2019-04-20T01:53:55.725Z,11.10
2019-04-20T01:56:18.136Z,10.82
2019-04-20T01:58:58.278Z,10.15
2019-04-20T02:01:33.598Z,10.20
2019-04-20T02:04:04.645Z,11.10
2019-04-20T02:06:39.902Z,10.55
2019-04-20T02:09:14.765Z,10.65
2019-04-20T02:14:10.359Z,11.12
2019-04-20T02:16:45.241Z,10.13
2019-04-20T02:19:23.003Z,11.03
2019-04-20T02:21:55.923Z,10.25
2019-04-20T02:24:11.010Z,11.43
2019-04-20T02:26:39.262Z,10.68
2019-04-20T02:29:30.606Z,10.75
2019-04-20T02:32:19.824Z,10.70
2019-04-20T02:39:48.985Z,10.32
2019-04-20T02:42:28.124Z,10.75
2019-04-20T02:52:21.482Z,10.98
2019-04-20T02:54:47.242Z,11.33
2019-04-20T03:00:03.273Z,11.35
2019-04-20T03:02:04.174Z,10.90
2019-04-20T03:04:25.771Z,11.05
2019-04-20T03:07:04.142Z,11.33
2019-04-20T03:09:36.414Z,11.68
2019-04-20T03:12:08.027Z,11.57
2019-04-20T03:14:30.393Z,11.50
2019-04-20T03:17:10.457Z,11.60
2019-04-20T03:19:31.379Z,11.93
2019-04-20T03:22:09.245Z,11.50
2019-04-20T03:24:46.866Z,11.97
2019-04-20T03:27:12.399Z,11.93
2019-04-20T03:29:56.216Z,11.73
2019-04-20T03:35:08.117Z,12.82
2019-04-20T03:37:30.677Z,12.60
2019-04-20T03:39:55.547Z,12.50
2019-04-20T03:42:11.153Z,12.47
2019-04-20T03:44:50.491Z,12.43
2019-04-20T03:47:13.682Z,13.53
2019-04-20T03:50:00.953Z,12.58
2019-04-20T03:52:36.568Z,12.90
2019-04-20T03:55:26.343Z,13.08
2019-04-20T03:58:08.797Z,13.18
2019-04-20T04:00:48.416Z,12.20
2019-04-20T04:03:39.132Z,13.05
2019-04-20T04:05:55.552Z,13.45
2019-04-20T04:08:24.765Z,13.28
2019-04-20T04:11:06.651Z,12.82
2019-04-20T04:13:18.833Z,13.80
2019-04-20T04:15:52.216Z,12.80
2019-04-20T04:18:28.001Z,13.08
2019-04-20T04:20:59.082Z,13.62
2019-04-20T04:23:38.216Z,13.35
2019-04-20T04:28:36.958Z,13.85
2019-04-20T04:31:12.019Z,13.70
2019-04-20T04:36:10.115Z,13.45
2019-04-20T04:41:19.978Z,13.50
2019-04-20T04:43:39.999Z,14.25
2019-04-20T04:45:55.534Z,13.40
2019-04-20T04:48:31.296Z,14.05
2019-04-20T04:51:02.456Z,13.60
2019-04-20T04:53:38.886Z,13.98
2019-04-20T04:56:03.145Z,14.33
2019-04-20T04:58:25.694Z,14.25
2019-04-20T05:01:03.761Z,14.33
2019-04-20T05:03:44.960Z,13.32
2019-04-20T05:06:16.796Z,14.85
2019-04-20T05:08:34.452Z,14.20
2019-04-20T05:10:58.340Z,14.95
2019-04-20T05:13:37.613Z,14.45
2019-04-20T05:16:08.118Z,15.75
2019-04-20T05:18:55.458Z,14.33
2019-04-20T05:21:20.763Z,15.40
2019-04-20T05:23:43.102Z,14.65
2019-04-20T05:26:31.071Z,14.28
2019-04-20T05:28:52.748Z,15.43
2019-04-20T05:31:13.028Z,14.90
2019-04-20T05:34:03.526Z,15.65
2019-04-20T05:36:29.620Z,14.90
2019-04-20T05:39:13.149Z,16.40
2019-04-20T05:41:32.851Z,15.63
2019-04-20T05:44:03.010Z,15.58
2019-04-20T05:46:32.098Z,15.88
2019-04-20T05:49:11.790Z,15.43
2019-04-20T05:51:41.006Z,15.72
2019-04-20T05:54:11.950Z,15.68
2019-04-20T05:56:40.305Z,16.45
2019-04-20T05:59:09.140Z,15.93
2019-04-20T06:01:39.694Z,16.57
2019-04-20T06:04:02.537Z,16.10
2019-04-20T06:06:37.562Z,16.62
2019-04-20T06:09:12.981Z,15.55
2019-04-20T06:11:52.365Z,16.93
2019-04-20T06:14:15.184Z,16.70
2019-04-20T06:17:02.991Z,16.77
2019-04-20T06:19:36.922Z,16.40
2019-04-20T06:22:11.382Z,17.75
2019-04-20T06:24:49.139Z,16.60
2019-04-20T06:27:21.517Z,17.67
2019-04-20T06:29:51.350Z,16.95
2019-04-20T06:32:27.092Z,17.42
2019-04-20T06:34:53.543Z,18.70
2019-04-20T06:37:23.415Z,18.20
2019-04-20T06:40:07.792Z,18.05
2019-04-20T06:42:23.122Z,18.70
2019-04-20T06:45:02.214Z,18.20
2019-04-20T06:47:29.428Z,19.00
2019-04-20T06:49:56.764Z,19.12
2019-04-20T06:52:49.179Z,18.48
2019-04-20T06:55:15.735Z,17.80
2019-04-20T07:00:15.370Z,19.02
2019-04-20T07:05:21.271Z,17.35
2019-04-20T07:07:47.568Z,19.17
2019-04-20T07:10:23.041Z,19.45
2019-04-20T07:12:43.624Z,18.10
2019-04-20T07:15:17.484Z,18.98
2019-04-20T07:17:56.147Z,19.60
2019-04-20T07:20:15.486Z,18.25
2019-04-20T07:22:54.318Z,19.45
2019-04-20T07:25:24.470Z,18.02
2019-04-20T07:27:53.624Z,19.40
2019-04-20T07:30:24.153Z,18.85
2019-04-20T07:33:04.272Z,19.12
2019-04-20T07:38:21.042Z,20.10
2019-04-20T07:40:34.741Z,20.30
2019-04-20T07:42:58.970Z,18.80
2019-04-20T07:45:33.536Z,20.20
2019-04-20T07:48:07.430Z,19.73
2019-04-20T07:50:25.144Z,19.77
2019-04-20T07:53:13.678Z,19.98
2019-04-20T07:55:50.779Z,19.67
2019-04-20T07:58:10.118Z,19.85
2019-04-20T08:00:57.743Z,20.12
2019-04-20T08:03:39.674Z,20.15
2019-04-20T08:06:06.802Z,20.17
2019-04-20T08:11:21.122Z,19.95
2019-04-20T08:13:59.016Z,21.35
2019-04-20T08:22:23.135Z,18.25
2019-04-20T08:24:46.372Z,18.60
2019-04-20T08:27:03.839Z,18.95
2019-04-20T08:29:45.786Z,19.57
2019-04-20T08:32:23.107Z,19.52
2019-04-20T08:34:59.110Z,20.30
2019-04-20T08:37:20.672Z,18.80
2019-04-20T08:40:01.541Z,20.50
2019-04-20T08:42:33.262Z,20.82
2019-04-20T08:47:40.780Z,20.10
2019-04-20T08:50:15.917Z,18.85
2019-04-20T08:53:07.184Z,18.55
2019-04-20T08:55:09.190Z,18.20
2019-04-20T08:57:22.501Z,18.67
2019-04-20T08:59:52.669Z,18.65
2019-04-20T09:02:22.090Z,18.80
2019-04-20T09:04:58.260Z,17.92
2019-04-20T09:07:25.165Z,18.90
2019-04-20T09:10:22.220Z,19.40
2019-04-20T09:12:40.535Z,19.10
2019-04-20T09:14:53.069Z,18.60
2019-04-20T09:17:34.756Z,18.73
2019-04-20T09:20:04.738Z,19.40
2019-04-20T09:22:40.268Z,19.05
2019-04-20T09:25:48.775Z,17.48
2019-04-20T09:27:40.604Z,17.17
2019-04-20T09:30:21.386Z,17.20
2019-04-20T09:33:06.645Z,16.97
2019-04-20T09:35:34.064Z,15.93
2019-04-20T09:38:09.284Z,17.05
2019-04-20T09:40:35.324Z,17.25
2019-04-20T09:42:52.451Z,16.77
2019-04-20T09:45:30.988Z,16.97
2019-04-20T09:47:55.348Z,16.77
2019-04-20T09:50:43.797Z,16.75
2019-04-20T09:53:10.452Z,16.95
2019-04-20T09:55:38.276Z,15.98
2019-04-20T09:58:08.642Z,15.80
2019-04-20T10:00:42.203Z,16.05
2019-04-20T10:03:00.220Z,14.38
2019-04-20T10:05:29.559Z,15.35
2019-04-20T10:08:01.175Z,15.50
2019-04-20T10:10:38.883Z,14.93
2019-04-20T10:13:00.689Z,14.80
2019-04-20T10:15:33.745Z,15.60
2019-04-20T10:18:03.751Z,14.95
2019-04-20T10:20:35.178Z,14.40
2019-04-20T10:23:08.796Z,14.63
2019-04-20T10:25:38.405Z,13.43
2019-04-20T10:28:07.636Z,14.68
2019-04-20T10:30:36.730Z,14.95
2019-04-20T10:33:05.831Z,13.95
2019-04-20T10:35:35.826Z,14.07
2019-04-20T10:38:09.612Z,14.73
2019-04-20T10:40:50.768Z,12.73
2019-04-20T10:43:10.190Z,13.98
2019-04-20T10:45:39.202Z,13.30
2019-04-20T10:48:10.927Z,12.23
2019-04-20T10:50:40.911Z,12.82
2019-04-20T10:53:12.118Z,12.93
2019-04-20T10:55:39.851Z,13.58
2019-04-20T10:58:09.351Z,12.15
2019-04-20T11:00:41.804Z,11.68
2019-04-20T11:03:13.547Z,12.40
2019-04-20T11:05:42.930Z,12.20
2019-04-20T11:08:12.866Z,11.22
2019-04-20T11:10:55.559Z,12.10
2019-04-20T11:13:13.033Z,10.93
2019-04-20T11:15:42.226Z,9.10
2019-04-20T11:18:11.391Z,11.05
2019-04-20T11:20:41.392Z,12.50
2019-04-20T11:23:13.991Z,10.13
2019-04-20T11:25:44.261Z,7.93
2019-04-20T11:28:20.188Z,9.48
2019-04-20T11:30:50.088Z,8.60
2019-04-20T11:33:20.367Z,7.70
2019-04-20T11:35:49.955Z,9.75
2019-04-20T11:38:19.723Z,8.13
2019-04-20T11:41:01.618Z,8.75
2019-04-20T11:43:21.811Z,5.90
2019-04-20T11:45:52.504Z,5.15
2019-04-20T11:48:21.342Z,6.95
2019-04-20T11:50:51.562Z,7.78
2019-04-20T11:53:25.173Z,6.65
2019-04-20T11:55:54.143Z,5.70
2019-04-20T11:58:23.838Z,6.15
2019-04-20T12:01:02.959Z,6.80
2019-04-20T12:03:35.321Z,6.70
2019-04-20T12:06:02.766Z,6.92
2019-04-20T12:08:29.265Z,7.15
2019-04-20T12:11:01.701Z,6.85
2019-04-20T12:13:29.044Z,7.37
2019-04-20T12:15:59.482Z,7.87
2019-04-20T12:18:32.002Z,6.95
2019-04-20T12:21:00.831Z,6.30
2019-04-20T12:23:30.920Z,6.67
2019-04-20T12:25:59.865Z,7.17
2019-04-20T12:28:40.339Z,5.42
2019-04-20T12:31:15.359Z,5.72
2019-04-20T12:33:40.144Z,5.33
2019-04-20T12:36:12.156Z,4.75
2019-04-20T12:39:41.083Z,4.58
2019-04-20T12:42:19.077Z,5.25
2019-04-20T12:44:48.086Z,4.85
2019-04-20T12:47:17.460Z,6.28
2019-04-20T12:49:47.570Z,5.87
2019-04-20T12:52:16.668Z,6.22
2019-04-20T12:54:46.796Z,6.40
2019-04-20T12:57:16.553Z,5.87
2019-04-20T12:59:46.982Z,5.65
2019-04-20T13:02:15.844Z,5.37
2019-04-20T13:04:45.708Z,5.10
2019-04-20T13:07:15.663Z,5.53
2019-04-20T13:09:50.740Z,5.60
2019-04-20T13:12:32.197Z,6.62
2019-04-20T13:15:18.259Z,7.12
2019-04-20T13:17:49.674Z,6.28
2019-04-20T13:20:18.285Z,6.28
2019-04-20T13:22:48.740Z,5.80
2019-04-20T13:25:18.793Z,5.83
2019-04-20T13:27:49.083Z,5.28
2019-04-20T13:30:19.396Z,5.85
2019-04-20T13:32:57.036Z,6.22
2019-04-20T13:35:20.557Z,6.10
2019-04-20T13:37:50.256Z,5.55
2019-04-20T13:40:19.728Z,5.75
2019-04-20T13:42:49.789Z,6.15
2019-04-20T13:45:19.237Z,6.17
2019-04-20T13:47:48.689Z,6.15
2019-04-20T13:50:18.100Z,6.08
2019-04-20T13:52:46.963Z,6.22
2019-04-20T13:55:16.903Z,6.00
2019-04-20T13:58:00.008Z,5.97
2019-04-20T14:00:50.323Z,6.72
2019-04-20T14:03:19.055Z,6.72
2019-04-20T14:05:48.783Z,6.00
2019-04-20T14:08:21.200Z,5.80
2019-04-20T14:10:51.254Z,6.08
2019-04-20T14:13:22.099Z,6.15
2019-04-20T14:15:51.270Z,6.72
2019-04-20T14:18:19.950Z,6.70
2019-04-20T14:20:49.968Z,6.85
2019-04-20T14:23:18.937Z,6.65
2019-04-20T14:25:49.134Z,7.45
2019-04-20T14:28:18.661Z,6.90
2019-04-20T14:30:47.898Z,6.70
2019-04-20T14:33:16.940Z,6.75
2019-04-20T14:35:47.013Z,6.42
2019-04-20T14:38:17.527Z,7.30
2019-04-20T14:40:46.723Z,7.10
2019-04-20T14:43:15.413Z,7.00
2019-04-20T14:45:47.059Z,6.87
2019-04-20T14:48:16.375Z,7.33
2019-04-20T14:51:25.742Z,7.17
2019-04-20T14:53:27.368Z,6.92
2019-04-20T14:56:07.373Z,7.15
2019-04-20T14:58:42.132Z,7.37
2019-04-20T15:01:40.924Z,8.68
2019-04-20T15:04:15.137Z,7.87
2019-04-20T15:06:40.264Z,8.15
2019-04-20T15:09:11.063Z,7.35
2019-04-20T15:11:44.605Z,7.37
2019-04-20T15:16:52.885Z,7.28
2019-04-20T15:19:29.491Z,7.22
2019-04-20T15:22:09.374Z,7.47
2019-04-20T15:24:39.537Z,7.95
2019-04-20T15:27:10.144Z,7.50
2019-04-20T15:29:40.086Z,7.25
2019-04-20T15:32:10.153Z,8.28
2019-04-20T15:34:39.957Z,8.13
2019-04-20T15:37:09.900Z,7.92
2019-04-20T15:39:38.946Z,7.80
2019-04-20T15:42:09.690Z,8.03
2019-04-20T15:44:45.535Z,7.80
2019-04-20T15:47:13.132Z,9.05
2019-04-20T16:06:09.440Z,8.30
2019-04-20T16:08:39.784Z,8.35
2019-04-20T16:11:09.100Z,8.05
2019-04-20T16:13:41.953Z,8.28
2019-04-20T16:16:09.794Z,8.10
2019-04-20T16:18:39.136Z,7.35
2019-04-20T16:21:14.114Z,8.80
2019-04-20T16:23:40.813Z,7.85
2019-04-20T16:26:17.757Z,7.97
2019-04-20T16:28:47.953Z,7.78
2019-04-20T16:31:16.652Z,7.70
2019-04-20T16:33:46.475Z,7.50
2019-04-20T16:36:16.448Z,7.83
2019-04-20T16:38:45.642Z,7.67
2019-04-20T16:41:14.710Z,7.50
2019-04-20T16:43:45.023Z,7.42
2019-04-20T16:46:18.139Z,7.30
2019-04-20T16:48:44.359Z,7.40
2019-04-20T16:51:13.216Z,7.70
2019-04-20T16:53:41.867Z,7.78
2019-04-20T16:56:13.032Z,7.50
2019-04-20T16:58:44.075Z,7.58
2019-04-20T17:01:13.734Z,7.75
2019-04-20T17:03:51.917Z,8.08
2019-04-20T17:06:13.839Z,7.65
2019-04-20T17:08:44.436Z,7.55
2019-04-20T17:11:13.898Z,7.80
2019-04-20T17:13:49.209Z,7.83
2019-04-20T17:16:13.424Z,8.10
2019-04-20T17:18:43.668Z,7.60
2019-04-20T17:21:16.564Z,8.13
2019-04-20T17:23:43.940Z,8.00
2019-04-20T17:26:14.995Z,7.70
2019-04-20T17:28:45.242Z,8.00
2019-04-20T17:31:19.776Z,7.70
2019-04-20T17:34:01.526Z,7.50
2019-04-20T17:36:25.260Z,7.35
2019-04-20T17:38:54.989Z,7.25
2019-04-20T17:41:44.422Z,7.47
2019-04-20T17:44:09.662Z,6.97
2019-04-20T17:46:36.818Z,6.08
2019-04-20T17:49:09.527Z,5.37
2019-04-20T17:51:49.068Z,6.13
2019-04-20T17:54:11.171Z,6.30
2019-04-20T17:56:42.516Z,5.90
2019-04-20T17:59:12.479Z,5.62
2019-04-20T18:02:11.945Z,6.37
2019-04-20T18:05:00.958Z,6.60
2019-04-20T18:07:31.201Z,6.42
2019-04-20T18:09:58.921Z,6.67
2019-04-20T18:12:15.497Z,7.05
2019-04-20T18:14:53.485Z,6.75
2019-04-20T18:17:32.083Z,6.85
2019-04-20T18:20:09.350Z,6.80
2019-04-20T18:22:43.289Z,6.42
2019-04-20T18:25:28.788Z,6.60
2019-04-20T18:27:57.336Z,6.95
2019-04-20T18:30:27.537Z,6.70
2019-04-20T18:32:45.299Z,6.65
2019-04-20T18:35:20.177Z,7.70
2019-04-20T18:37:52.513Z,7.28
2019-04-20T18:40:31.700Z,7.00
2019-04-20T18:43:00.019Z,7.28
2019-04-20T18:45:33.659Z,7.35
2019-04-20T18:48:11.698Z,7.37
2019-04-20T18:50:27.344Z,7.20
2019-04-20T18:52:51.735Z,7.53
2019-04-20T18:55:31.236Z,7.70
2019-04-20T18:57:51.061Z,7.65
2019-04-20T19:00:27.993Z,8.18
2019-04-20T19:02:56.096Z,7.95
2019-04-20T19:05:24.043Z,7.45
2019-04-20T19:07:59.870Z,7.70
2019-04-20T19:10:29.102Z,7.80
2019-04-20T19:12:59.882Z,7.95
2019-04-20T19:15:49.471Z,8.95
2019-04-20T19:18:22.408Z,8.28
2019-04-20T19:20:41.266Z,9.05
2019-04-20T19:23:10.533Z,8.73
2019-04-20T19:25:42.365Z,8.83
2019-04-20T19:28:10.654Z,9.13
2019-04-20T19:30:47.029Z,9.00
2019-04-20T19:33:30.077Z,9.43
2019-04-20T19:35:52.162Z,9.18
2019-04-20T19:38:19.920Z,9.03
2019-04-20T19:40:53.872Z,9.73
2019-04-20T19:43:22.359Z,9.23
2019-04-20T19:46:16.629Z,9.20
2019-04-20T19:48:28.107Z,10.28
2019-04-20T19:51:12.964Z,10.10
2019-04-20T19:53:37.724Z,11.08
2019-04-20T19:55:59.034Z,10.38
2019-04-20T19:58:33.435Z,11.38
2019-04-20T20:00:54.233Z,11.80
2019-04-20T20:03:25.892Z,11.22
2019-04-20T20:05:58.258Z,11.18
2019-04-20T20:08:29.950Z,11.97
2019-04-20T20:11:00.878Z,11.85
2019-04-20T20:13:33.246Z,12.50
2019-04-20T20:16:09.020Z,12.03
2019-04-20T20:18:39.265Z,12.55
2019-04-20T20:21:12.721Z,11.93
2019-04-20T20:23:30.001Z,13.62
2019-04-20T20:26:05.074Z,13.90
2019-04-20T20:28:40.116Z,14.43
2019-04-20T20:31:16.276Z,14.55
2019-04-20T20:33:52.057Z,17.35
2019-04-20T20:36:11.556Z,15.65
2019-04-20T20:38:40.031Z,14.68
2019-04-20T20:41:17.381Z,14.25
2019-04-20T20:43:51.061Z,14.25
2019-04-20T20:46:19.463Z,15.40
2019-04-20T20:49:06.246Z,14.03
2019-04-20T20:51:35.775Z,15.58
2019-04-20T20:53:50.976Z,14.55
2019-04-20T20:56:21.505Z,14.55
2019-04-20T20:58:55.024Z,15.13
2019-04-20T21:01:18.460Z,14.63
2019-04-20T21:03:46.939Z,14.65
2019-04-20T21:06:15.540Z,14.65
2019-04-20T21:08:48.708Z,16.60
2019-04-20T21:11:21.617Z,15.60
2019-04-20T21:13:47.291Z,16.75
2019-04-20T21:16:20.343Z,17.45
2019-04-20T21:19:03.235Z,16.42
2019-04-20T21:21:27.716Z,16.42
2019-04-20T21:23:56.716Z,15.10
2019-04-20T21:26:27.107Z,15.95
2019-04-20T21:28:50.301Z,16.27
2019-04-20T21:31:24.256Z,16.27
2019-04-20T21:33:49.188Z,17.37
2019-04-20T21:36:21.451Z,17.62
2019-04-20T21:38:48.711Z,17.75
2019-04-20T21:41:20.584Z,17.48
2019-04-20T21:43:49.859Z,17.32
2019-04-20T21:46:18.791Z,18.00
2019-04-20T21:49:00.691Z,17.98
2019-04-20T21:51:30.535Z,18.05
2019-04-20T21:53:48.371Z,18.48
2019-04-20T21:56:17.724Z,17.30
2019-04-20T21:58:52.535Z,18.23
2019-04-20T22:01:28.023Z,17.55
2019-04-20T22:03:48.148Z,17.10
2019-04-20T22:06:18.346Z,18.12
2019-04-20T22:08:53.090Z,17.57
2019-04-20T22:11:17.838Z,16.85
2019-04-20T22:13:49.131Z,18.55
2019-04-20T22:16:18.586Z,17.55
2019-04-20T22:18:54.422Z,16.35
2019-04-20T22:21:27.849Z,18.70
2019-04-20T22:24:05.540Z,16.97
2019-04-20T22:26:30.050Z,16.87
2019-04-20T22:28:50.145Z,17.15
2019-04-20T22:31:20.242Z,17.17
2019-04-20T22:33:50.459Z,16.70
2019-04-20T22:36:20.208Z,16.25
2019-04-20T22:39:09.645Z,16.82
2019-04-20T22:41:40.809Z,16.87
2019-04-20T22:44:15.448Z,17.77
2019-04-20T22:46:42.166Z,16.48
2019-04-20T22:49:26.607Z,16.95
2019-04-20T22:51:51.976Z,17.07
2019-04-20T22:54:32.638Z,17.40
2019-04-20T22:56:55.096Z,17.20
2019-04-20T22:59:16.497Z,17.35
2019-04-20T23:01:49.889Z,17.07
2019-04-20T23:04:12.846Z,15.95
2019-04-20T23:06:47.718Z,17.42
2019-04-20T23:09:14.748Z,17.17
2019-04-20T23:11:42.436Z,16.82
2019-04-20T23:14:11.188Z,16.00
2019-04-20T23:16:43.920Z,17.05
2019-04-20T23:19:10.247Z,17.32
2019-04-20T23:21:40.957Z,17.32
2019-04-20T23:24:10.065Z,16.82
2019-04-20T23:26:42.135Z,16.60
2019-04-20T23:29:11.172Z,17.60
2019-04-20T23:31:49.304Z,17.73
2019-04-20T23:34:18.639Z,17.37
2019-04-20T23:36:45.171Z,17.45
2019-04-20T23:39:12.861Z,16.70
2019-04-20T23:41:49.900Z,17.27
2019-04-20T23:44:16.944Z,17.40
2019-04-20T23:46:45.518Z,17.15
2019-04-20T23:49:29.542Z,16.42
2019-04-20T23:52:21.570Z,16.60
2019-04-20T23:54:27.921Z,16.20
2019-04-20T23:56:55.644Z,17.50
2019-04-20T23:59:27.661Z,17.17
